Time;durP1;ratioP1;P1;durP2;ratioP2;P2;SDS_P1;SDS_P2;PMS_P1;PMS_P2;Temp;Humidity;BMP_temperature;BMP_pressure;BME280_temperature;BME280_humidity;BME280_pressure;Samples;Min_cycle;Max_cycle;Signal;HPM_P1;HPM_P2
2021/12/04 00:01:53;;;;;;;0.95;0.80;;;4.40;99.90;;;4.46;73.71;99515.81;5030059;28;20297;-63
2021/12/04 00:04:45;;;;;;;0.50;0.50;;;4.30;99.90;;;4.37;74.17;99509.47;5030372;28;20679;-63
2021/12/04 00:07:09;;;;;;;1.05;0.95;;;4.30;99.90;;;4.31;74.74;99509.03;5029393;28;20222;-63
2021/12/04 00:09:37;;;;;;;1.25;1.15;;;4.10;99.90;;;4.27;75.09;99505.84;5029328;28;20729;-62
2021/12/04 00:12:06;;;;;;;1.02;0.73;;;4.10;99.90;;;4.29;74.64;99498.81;5031700;28;20252;-63
2021/12/04 00:14:36;;;;;;;0.90;0.90;;;4.10;99.90;;;4.13;74.64;99495.56;5031015;28;20272;-62
2021/12/04 00:17:05;;;;;;;0.68;0.60;;;4.10;99.90;;;4.24;74.72;99482.78;5029792;28;20666;-63
2021/12/04 00:19:32;;;;;;;0.70;0.70;;;4.10;99.90;;;4.24;74.93;99477.63;5030843;28;20316;-63
2021/12/04 00:22:00;;;;;;;1.95;0.60;;;4.10;99.90;;;4.26;74.73;99469.81;5030154;28;20202;-63
2021/12/04 00:24:28;;;;;;;1.95;1.23;;;4.10;99.90;;;4.27;75.00;99472.28;5011982;28;20206;-63
2021/12/04 00:26:55;;;;;;;0.70;0.70;;;4.10;99.90;;;4.22;75.19;99461.41;5022102;28;20289;-63
2021/12/04 00:29:23;;;;;;;0.70;0.70;;;4.20;99.90;;;4.21;74.90;99454.59;5031082;28;20301;-62
2021/12/04 00:31:56;;;;;;;0.55;0.52;;;4.10;99.90;;;4.26;74.44;99449.16;5030335;28;20234;-63
2021/12/04 00:34:25;;;;;;;1.30;0.68;;;4.10;99.90;;;4.31;74.05;99441.91;5030495;28;20206;-63
2021/12/04 00:50:41;;;;;;;0.30;0.30;;;4.20;99.90;;;4.37;72.49;99406.19;5030593;28;20316;-63
2021/12/04 00:53:08;;;;;;;0.93;0.73;;;4.30;99.90;;;4.39;72.58;99408.66;5026162;28;20205;-62
2021/12/04 00:55:35;;;;;;;0.47;0.47;;;4.30;99.90;;;4.44;72.53;99406.63;5029423;28;20288;-63
2021/12/04 00:58:03;;;;;;;0.63;0.63;;;4.30;99.90;;;4.43;72.31;99410.16;5027293;28;20289;-63
2021/12/04 01:00:30;;;;;;;1.00;1.00;;;4.30;99.90;;;4.44;73.16;99406.63;5029327;28;20229;-63
2021/12/04 01:02:58;;;;;;;0.40;0.40;;;4.40;99.90;;;4.43;72.85;99405.78;5029923;28;20198;-63
2021/12/04 01:05:25;;;;;;;1.77;0.50;;;4.30;99.90;;;4.39;72.72;99403.50;5029190;28;20255;-63
2021/12/04 01:07:52;;;;;;;0.63;0.63;;;4.30;99.90;;;4.44;72.71;99422.13;5032452;28;20815;-63
2021/12/04 01:10:19;;;;;;;0.65;0.65;;;4.30;99.90;;;4.47;72.88;99427.09;5034181;28;20321;-63
2021/12/04 01:12:46;;;;;;;0.65;0.60;;;4.30;99.90;;;4.44;73.34;99422.94;5031963;28;20200;-62
2021/12/04 01:15:12;;;;;;;0.80;0.80;;;4.30;99.90;;;4.42;73.54;99423.97;5034816;28;20212;-62
2021/12/04 01:17:39;;;;;;;0.52;0.52;;;4.30;99.90;;;4.42;74.21;99413.63;5034471;28;20221;-62
2021/12/04 01:20:11;;;;;;;0.20;0.20;;;4.30;99.90;;;4.47;73.87;99411.59;5033257;28;20226;-62
2021/12/04 01:22:39;;;;;;;0.73;0.73;;;4.30;99.90;;;4.45;74.63;99405.72;5035145;28;20758;-62
2021/12/04 01:25:06;;;;;;;0.70;0.70;;;4.30;99.90;;;4.43;75.41;99410.16;5034193;28;20684;-63
2021/12/04 01:27:35;;;;;;;0.57;0.57;;;4.30;99.90;;;4.40;76.80;99395.69;5034923;28;20293;-62
2021/12/04 01:30:06;;;;;;;0.43;0.43;;;4.30;99.90;;;4.44;76.85;99394.53;5033557;28;20218;-62
2021/12/04 01:32:33;;;;;;;0.60;0.60;;;4.30;99.90;;;4.24;77.92;99389.03;5033311;28;20285;-62
2021/12/04 01:35:00;;;;;;;0.50;0.50;;;4.20;99.90;;;4.20;77.95;99385.81;5032701;28;20678;-62
2021/12/04 01:37:27;;;;;;;0.45;0.45;;;4.20;99.90;;;4.16;79.18;99381.78;5030850;28;20198;-62
2021/12/04 01:39:53;;;;;;;0.47;0.47;;;4.10;99.90;;;4.21;79.13;99369.41;5033505;28;20264;-62
2021/12/04 01:42:21;;;;;;;2.67;0.47;;;4.10;99.90;;;4.15;79.04;99362.06;5048338;28;20208;-62
2021/12/04 01:44:49;;;;;;;0.40;0.40;;;4.10;99.90;;;4.12;78.97;99364.84;5034144;28;20768;-62
2021/12/04 01:47:20;;;;;;;0.68;0.68;;;4.00;99.90;;;4.19;79.22;99357.53;5033264;28;20202;-62
2021/12/04 01:49:53;;;;;;;0.55;0.55;;;4.10;99.90;;;4.13;80.08;99356.16;5032674;28;20269;-62
2021/12/04 01:52:21;;;;;;;0.95;0.52;;;4.00;99.90;;;4.04;80.73;99361.94;5034742;28;20308;-61
2021/12/04 01:54:50;;;;;;;0.60;0.60;;;4.00;99.90;;;3.98;81.79;99354.59;5033456;28;20234;-62
2021/12/04 01:57:20;;;;;;;0.70;0.40;;;3.90;99.90;;;3.99;82.51;99358.00;5032893;28;20666;-63
2021/12/04 01:59:48;;;;;;;0.30;0.30;;;3.90;99.90;;;3.87;83.15;99354.47;5033663;28;20260;-61
2021/12/04 02:02:15;;;;;;;0.30;0.30;;;3.80;99.90;;;3.86;83.70;99345.06;5031995;28;20297;-62
2021/12/04 02:04:42;;;;;;;0.65;0.65;;;3.70;99.90;;;3.54;85.29;99347.13;5033086;28;20674;-61
2021/12/04 02:07:11;;;;;;;0.20;0.20;;;3.60;99.90;;;3.67;85.88;99347.16;5033074;28;20737;-61
2021/12/04 02:09:39;;;;;;;0.30;0.30;;;3.60;99.90;;;3.54;86.63;99343.72;5032767;28;20248;-62
2021/12/04 02:12:08;;;;;;;0.68;0.68;;;3.50;99.90;;;3.53;86.74;99337.75;5032954;28;20243;-62
2021/12/04 02:14:39;;;;;;;0.95;0.80;;;3.40;99.90;;;3.46;87.50;99327.91;5013107;28;20202;-62
2021/12/04 02:17:07;;;;;;;0.30;0.30;;;3.40;99.90;;;3.37;88.90;99323.31;5028015;28;20199;-62
2021/12/04 02:19:35;;;;;;;0.45;0.45;;;3.30;99.90;;;3.36;89.63;99319.13;5030989;28;20218;-62
2021/12/04 02:22:02;;;;;;;0.50;0.50;;;3.20;99.90;;;3.35;89.49;99313.13;5032471;28;20216;-62
2021/12/04 02:24:29;;;;;;;0.50;0.50;;;3.20;99.90;;;3.30;90.10;99311.78;5033008;28;20684;-62
2021/12/04 02:26:56;;;;;;;1.10;0.70;;;3.20;99.90;;;3.26;91.02;99305.16;5032243;28;20641;-62
2021/12/04 02:29:23;;;;;;;0.30;0.30;;;3.20;99.90;;;3.17;91.51;99312.50;5031820;28;20313;-62
2021/12/04 02:31:57;;;;;;;3.10;0.63;;;3.10;99.90;;;3.02;92.00;99303.16;5030810;28;20226;-62
2021/12/04 02:34:27;;;;;;;0.40;0.40;;;3.00;99.90;;;2.99;92.28;99292.22;5031570;28;20263;-62
2021/12/04 02:36:57;;;;;;;0.73;0.43;;;2.90;99.90;;;2.98;92.48;99282.88;5031308;28;20920;-62
2021/12/04 02:39:31;;;;;;;1.02;0.90;;;2.90;99.90;;;2.83;93.83;99279.47;5033396;28;20330;-62
2021/12/04 02:41:59;;;;;;;0.85;0.52;;;2.80;99.90;;;2.84;93.60;99275.97;5033114;28;20273;-62
2021/12/04 02:44:40;;;;;;;9.07;0.90;;;2.80;99.90;;;2.76;94.05;99267.06;5033173;28;20249;-60
2021/12/04 02:47:08;;;;;;;0.45;0.45;;;2.70;99.90;;;2.77;94.60;99266.97;5030506;28;20204;-62
2021/12/04 02:49:35;;;;;;;0.82;0.82;;;2.70;99.90;;;2.79;94.59;99259.97;5031625;28;20799;-62
2021/12/04 02:52:07;;;;;;;0.60;0.60;;;2.70;99.90;;;2.84;94.67;99245.06;5032932;28;20383;-62
2021/12/04 02:54:36;;;;;;;0.60;0.60;;;2.80;99.90;;;2.83;95.02;99235.66;5032667;28;20297;-61
2021/12/04 02:57:07;;;;;;;1.25;1.25;;;2.80;99.90;;;2.91;95.17;99235.22;5033341;28;20562;-62
2021/12/04 02:59:37;;;;;;;1.05;0.88;;;2.80;99.90;;;2.97;95.40;99224.50;5030424;28;20241;-62
2021/12/04 03:02:10;;;;;;;1.20;1.10;;;2.90;99.90;;;2.97;96.22;99222.78;5028898;28;20693;-61
2021/12/04 03:04:37;;;;;;;1.08;0.90;;;2.90;99.90;;;3.03;96.55;99218.97;5031801;28;20737;-62
2021/12/04 03:07:04;;;;;;;0.30;0.30;;;3.00;99.90;;;3.04;96.52;99212.91;5032253;28;20202;-62
2021/12/04 03:09:31;;;;;;;0.73;0.73;;;3.00;99.90;;;2.97;97.48;99212.47;5030677;28;20717;-62
2021/12/04 03:12:02;;;;;;;0.88;0.88;;;3.00;99.90;;;3.06;97.44;99204.16;5033257;28;20230;-62
2021/12/04 03:14:29;;;;;;;0.88;0.88;;;3.00;99.90;;;3.07;98.01;99203.22;5032373;28;20208;-61
2021/12/04 03:16:57;;;;;;;1.60;1.50;;;3.00;99.90;;;3.06;98.00;99203.31;5032890;28;20292;-62
2021/12/04 03:19:25;;;;;;;1.20;0.68;;;3.00;99.90;;;3.11;98.14;99196.09;5031759;28;20244;-63
2021/12/04 03:21:53;;;;;;;0.43;0.40;;;3.00;99.90;;;3.20;97.80;99190.38;5032520;28;20245;-62
2021/12/04 03:24:20;;;;;;;0.85;0.85;;;3.20;99.90;;;3.27;97.86;99185.66;5031792;28;20723;-62
2021/12/04 03:26:49;;;;;;;0.85;0.85;;;3.20;99.90;;;3.25;98.11;99170.28;5031597;28;20202;-63
2021/12/04 03:29:22;;;;;;;1.05;0.95;;;3.20;99.90;;;3.23;98.02;99167.00;5031064;28;20301;-63
2021/12/04 03:42:27;;;;;;;0.60;0.60;;;3.20;99.90;;;3.29;100.00;99156.28;5027254;28;20911;-62
2021/12/04 03:44:54;;;;;;;1.00;1.00;;;3.20;99.90;;;3.23;100.00;99145.53;5032212;28;20212;-64
2021/12/04 03:47:22;;;;;;;2.45;0.70;;;3.20;99.90;;;3.25;100.00;99138.53;5030412;28;20209;-64
2021/12/04 03:49:51;;;;;;;0.40;0.40;;;3.20;99.90;;;3.33;100.00;99131.13;5046892;28;20738;-62
2021/12/04 03:52:18;;;;;;;1.25;1.15;;;3.20;99.90;;;3.36;100.00;99123.19;5030443;28;20217;-62
2021/12/04 03:54:45;;;;;;;1.05;0.82;;;3.30;99.90;;;3.48;100.00;99132.69;5030657;28;21099;-63
2021/12/04 03:57:12;;;;;;;0.55;0.55;;;3.40;99.90;;;3.41;100.00;99127.09;5026687;28;20202;-62
2021/12/04 03:59:46;;;;;;;1.63;1.33;;;3.30;99.90;;;3.44;100.00;99121.75;5032209;28;20225;-62
2021/12/04 04:02:16;;;;;;;3.40;0.60;;;3.40;99.90;;;3.41;100.00;99124.53;5023356;28;20661;-62
2021/12/04 04:04:45;;;;;;;1.10;0.88;;;3.30;99.90;;;3.46;100.00;99121.66;5024624;28;20209;-63
2021/12/04 04:07:12;;;;;;;1.80;1.40;;;3.40;99.90;;;3.45;100.00;99120.00;5030085;28;20217;-63
2021/12/04 04:09:40;;;;;;;0.70;0.70;;;3.40;99.90;;;3.46;100.00;99112.16;5029377;28;20226;-63
2021/12/04 04:12:07;;;;;;;0.45;0.45;;;3.40;99.90;;;3.50;100.00;99115.34;5030171;28;20221;-63
2021/12/04 04:14:34;;;;;;;0.68;0.68;;;3.50;99.90;;;3.57;100.00;99106.28;5030748;28;20198;-62
2021/12/04 04:17:02;;;;;;;1.00;0.95;;;3.50;99.90;;;3.61;100.00;99105.16;5031256;28;20208;-62
2021/12/04 04:19:29;;;;;;;1.60;1.50;;;3.50;99.90;;;3.67;100.00;99102.16;5032236;28;20226;-62
2021/12/04 04:21:58;;;;;;;0.80;0.80;;;3.60;99.90;;;3.68;100.00;99101.22;5030184;28;20210;-64
2021/12/04 04:24:27;;;;;;;4.20;1.67;;;3.60;99.90;;;3.67;100.00;99097.00;5031316;28;20225;-63
2021/12/04 04:26:55;;;;;;;3.42;1.02;;;3.60;99.90;;;3.67;100.00;99097.00;5028595;28;20202;-62
2021/12/04 04:29:24;;;;;;;1.90;1.80;;;3.60;99.90;;;3.66;100.00;99093.56;5030602;28;20717;-62
2021/12/04 04:31:54;;;;;;;3.97;1.65;;;3.60;99.90;;;3.66;100.00;99098.72;5029908;28;20743;-65
2021/12/04 05:13:01;;;;;;;0.75;0.75;;;3.40;99.90;;;3.51;100.00;99049.97;4950066;29;20243;-63
2021/12/04 05:21:04;;;;;;;0.88;0.88;;;3.40;99.90;;;3.53;100.00;99038.63;5031374;28;20299;-61
2021/12/04 05:23:42;;;;;;;0.52;0.40;;;3.50;99.90;;;3.50;100.00;99038.84;5030896;28;20210;-62
2021/12/04 05:26:18;;;;;;;0.77;0.77;;;3.40;99.90;;;3.45;100.00;99042.66;5030681;28;20208;-62
2021/12/04 05:28:46;;;;;;;1.40;1.17;;;3.40;99.90;;;3.49;100.00;99046.69;5029910;28;20318;-62
2021/12/04 05:31:14;;;;;;;1.00;1.00;;;3.40;99.90;;;3.51;100.00;99029.34;5029699;28;20218;-62
2021/12/04 05:33:41;;;;;;;0.75;0.60;;;3.40;99.90;;;3.55;100.00;99028.22;5031065;28;20202;-62
2021/12/04 05:36:09;;;;;;;1.38;1.27;;;3.50;99.90;;;3.51;100.00;99026.78;5028720;28;20220;-62
2021/12/04 05:38:37;;;;;;;0.82;0.82;;;3.40;99.90;;;3.50;100.00;99022.53;5029727;28;20281;-62
2021/12/04 05:41:05;;;;;;;1.35;1.25;;;3.40;99.90;;;3.52;100.00;99018.91;5029449;28;20229;-62
2021/12/04 05:43:34;;;;;;;0.68;0.68;;;3.50;99.90;;;3.52;100.00;99015.50;5029286;28;20245;-62
2021/12/04 05:46:11;;;;;;;1.48;1.38;;;3.40;99.90;;;3.56;100.00;99014.38;5028348;28;20260;-63
2021/12/04 05:54:01;;;;;;;1.10;1.00;;;3.60;99.90;;;3.67;100.00;98999.81;5033267;28;20688;-63
2021/12/04 05:56:30;;;;;;;0.80;0.80;;;3.60;99.90;;;3.68;100.00;99011.78;5032897;28;20289;-62
2021/12/04 05:58:58;;;;;;;1.02;1.02;;;3.60;99.90;;;3.71;100.00;99003.81;5034509;28;20202;-61
2021/12/04 06:01:27;;;;;;;2.45;1.25;;;3.70;99.90;;;3.75;100.00;99004.44;5033376;28;20758;-62
2021/12/04 06:03:54;;;;;;;1.15;1.00;;;3.70;99.90;;;3.76;100.00;99001.75;5032726;28;20205;-62
2021/12/04 06:06:21;;;;;;;1.58;1.58;;;3.70;99.90;;;3.81;100.00;99009.97;5029865;28;20569;-62
2021/12/04 06:08:48;;;;;;;1.08;1.08;;;3.70;99.90;;;3.85;100.00;98995.13;5034451;28;20277;-62
2021/12/04 06:11:14;;;;;;;1.40;1.40;;;3.80;99.90;;;3.91;100.00;98997.28;5032933;28;20230;-62
2021/12/04 06:13:42;;;;;;;1.10;1.10;;;3.80;99.90;;;3.91;100.00;98986.97;5033541;28;20305;-63
2021/12/04 06:16:09;;;;;;;4.13;1.40;;;3.90;99.90;;;3.91;100.00;98985.22;5032060;28;20204;-63
2021/12/04 06:18:41;;;;;;;4.93;1.60;;;3.90;99.90;;;3.94;100.00;98984.16;5031663;28;20213;-62
2021/12/04 06:23:53;;;;;;;1.55;1.45;;;3.90;99.90;;;3.92;100.00;98975.69;5033875;28;20220;-62
2021/12/04 06:26:20;;;;;;;1.52;1.42;;;3.80;99.90;;;3.97;100.00;98981.38;5033569;28;20940;-63
2021/12/04 06:28:48;;;;;;;1.75;1.25;;;3.90;99.90;;;4.01;100.00;98971.63;5032361;28;20201;-62
2021/12/04 06:31:15;;;;;;;1.70;1.60;;;3.90;99.90;;;4.01;100.00;98972.47;5032050;28;20300;-62
2021/12/04 06:33:42;;;;;;;2.88;2.00;;;3.90;99.90;;;4.06;100.00;98972.97;5032251;28;20276;-61
2021/12/04 06:36:10;;;;;;;1.70;1.60;;;4.00;99.90;;;4.11;100.00;98970.88;5032340;28;20202;-62
2021/12/04 06:38:37;;;;;;;1.77;1.60;;;4.10;99.90;;;4.16;100.00;98971.38;5032595;28;20290;-62
2021/12/04 06:41:05;;;;;;;1.27;1.00;;;4.10;99.90;;;4.21;100.00;98974.47;5031077;28;20214;-61
2021/12/04 06:43:33;;;;;;;1.67;1.58;;;4.20;99.90;;;4.23;100.00;98969.19;5032739;28;20234;-62
2021/12/04 06:46:03;;;;;;;1.50;1.38;;;4.20;99.90;;;4.26;100.00;98966.38;5031282;28;20201;-61
2021/12/04 06:49:20;;;;;;;1.40;1.35;;;4.20;99.90;;;4.27;100.00;98971.44;5031744;28;20205;-62
2021/12/04 06:51:33;;;;;;;2.05;1.95;;;4.20;99.90;;;4.30;100.00;98970.38;5026578;28;20678;-63
2021/12/04 06:54:13;;;;;;;1.50;1.50;;;4.20;99.90;;;4.33;100.00;98972.72;5026490;28;20793;-63
2021/12/04 06:56:42;;;;;;;2.55;1.88;;;4.20;99.90;;;4.33;100.00;98963.22;5031288;28;20190;-63
2021/12/04 06:59:13;;;;;;;2.30;1.95;;;4.20;99.90;;;4.36;100.00;98965.59;5031348;28;20281;-64
2021/12/04 07:01:41;;;;;;;2.15;2.05;;;4.30;99.90;;;4.40;100.00;98967.03;5032649;28;20288;-63
2021/12/04 07:04:09;;;;;;;1.65;1.55;;;4.30;99.90;;;4.43;100.00;98966.78;5031063;28;20200;-63
2021/12/04 07:06:36;;;;;;;2.17;2.08;;;4.30;99.90;;;4.46;100.00;98963.16;5030271;28;20662;-63
2021/12/04 07:09:04;;;;;;;2.72;2.40;;;4.40;99.90;;;4.49;100.00;98966.31;5030956;28;20277;-63
2021/12/04 07:11:31;;;;;;;2.70;2.50;;;4.40;99.90;;;4.50;100.00;98955.09;5031782;28;20202;-63
2021/12/04 07:13:58;;;;;;;2.75;2.55;;;4.40;99.90;;;4.53;100.00;98954.88;5027683;28;20305;-63
2021/12/04 07:16:25;;;;;;;1.88;1.77;;;4.50;99.90;;;4.59;100.00;98951.81;5032247;28;20226;-63
2021/12/04 07:18:53;;;;;;;2.20;2.00;;;4.50;99.90;;;4.59;100.00;98951.81;5031431;28;20205;-64
2021/12/04 07:21:20;;;;;;;3.58;2.30;;;4.60;99.90;;;4.57;100.00;98948.53;5030249;28;20268;-63
2021/12/04 07:23:47;;;;;;;3.30;3.00;;;4.60;99.90;;;4.58;100.00;98944.16;5031683;28;20202;-63
2021/12/04 07:26:14;;;;;;;2.92;2.15;;;4.50;99.90;;;4.56;100.00;98944.28;5031401;28;20202;-64
2021/12/04 07:28:41;;;;;;;2.70;2.50;;;4.50;99.90;;;4.61;100.00;98943.97;5030733;28;20210;-63
2021/12/04 07:31:08;;;;;;;2.67;2.47;;;4.60;99.90;;;4.63;100.00;98947.25;5031491;28;20313;-63
2021/12/04 07:33:36;;;;;;;3.25;2.70;;;4.60;99.90;;;4.61;100.00;98944.78;5031225;28;20226;-63
2021/12/04 07:36:04;;;;;;;2.72;2.50;;;4.60;99.90;;;4.64;100.00;98944.53;5030182;28;20284;-63
2021/12/04 07:38:32;;;;;;;2.40;2.15;;;4.60;99.90;;;4.63;100.00;98940.31;5029704;28;20675;-63
2021/12/04 07:41:00;;;;;;;3.22;2.72;;;4.60;99.90;;;4.63;100.00;98942.91;5018976;28;20222;-62
2021/12/04 07:43:28;;;;;;;6.68;2.45;;;4.60;99.90;;;4.69;100.00;98937.28;5030909;28;20243;-63
2021/12/04 07:45:57;;;;;;;7.32;3.60;;;4.70;99.90;;;4.69;100.00;98942.44;5031081;28;20206;-63
2021/12/04 07:48:23;;;;;;;4.80;3.10;;;4.70;99.90;;;4.75;100.00;98933.41;5029603;28;20256;-63
2021/12/04 07:50:51;;;;;;;4.63;3.40;;;4.70;99.90;;;4.76;100.00;98937.66;5031146;28;20317;-63
2021/12/04 07:53:18;;;;;;;5.03;3.40;;;4.70;99.90;;;4.75;100.00;98933.41;5030562;28;20701;-62
2021/12/04 07:55:45;;;;;;;4.32;3.40;;;4.70;99.90;;;4.79;100.00;98934.03;5031130;28;20299;-63
2021/12/04 07:58:13;;;;;;;5.10;3.25;;;4.70;99.90;;;4.78;100.00;98932.34;5031024;28;20288;-63
2021/12/04 08:00:41;;;;;;;5.47;4.03;;;4.70;99.90;;;4.78;100.00;98927.19;5030941;28;20210;-65
2021/12/04 08:03:08;;;;;;;5.43;3.72;;;4.70;99.90;;;4.83;100.00;98930.25;5030461;28;20241;-63
2021/12/04 08:05:42;;;;;;;5.28;3.90;;;4.80;99.90;;;4.85;100.00;98925.81;5031180;28;20263;-65
2021/12/04 08:08:09;;;;;;;4.68;2.70;;;4.80;99.90;;;4.87;100.00;98927.34;5030208;28;20202;-64
2021/12/04 08:10:36;;;;;;;3.20;2.90;;;4.80;99.90;;;4.91;100.00;98930.50;5029680;28;20240;-62
2021/12/04 08:13:04;;;;;;;2.30;2.13;;;4.90;99.90;;;4.91;100.00;98925.34;5029411;28;20221;-63
2021/12/04 08:15:33;;;;;;;3.72;3.25;;;4.90;99.90;;;4.90;100.00;98921.91;5030504;28;20236;-64
2021/12/04 08:18:00;;;;;;;4.35;3.42;;;4.90;99.90;;;4.95;100.00;98926.75;5029449;28;20198;-63
2021/12/04 08:20:27;;;;;;;5.45;3.20;;;4.90;99.90;;;4.95;100.00;98921.56;5029277;28;20301;-64
2021/12/04 08:22:54;;;;;;;3.50;3.17;;;4.90;99.90;;;4.92;100.00;98919.25;5027620;28;20210;-62
2021/12/04 08:25:23;;;;;;;5.50;2.30;;;4.90;99.90;;;4.94;100.00;98925.91;5030481;28;20289;-62
2021/12/04 08:27:50;;;;;;;2.90;2.15;;;4.90;99.90;;;4.93;100.00;98913.13;5028217;28;20297;-64
2021/12/04 08:30:22;;;;;;;3.65;2.25;;;4.90;99.90;;;4.88;100.00;98916.03;5029469;28;20312;-63
2021/12/04 08:32:53;;;;;;;3.55;2.38;;;4.80;99.90;;;4.87;100.00;98918.75;5029235;28;20218;-65
2021/12/04 08:35:24;;;;;;;2.72;2.47;;;4.80;99.90;;;4.88;100.00;98920.38;5029695;28;20206;-61
2021/12/04 08:37:54;;;;;;;6.60;4.18;;;4.80;99.90;;;4.90;100.00;98918.53;5023363;28;20210;-63
2021/12/04 08:40:21;;;;;;;3.00;2.80;;;4.80;99.90;;;4.92;100.00;98917.47;5029983;28;20222;-62
2021/12/04 08:42:48;;;;;;;8.13;3.15;;;4.90;99.90;;;4.98;100.00;98918.78;5029985;28;20289;-61
2021/12/04 08:45:17;;;;;;;4.97;3.50;;;4.90;99.90;;;5.05;100.00;98923.34;5028556;28;20201;-62
2021/12/04 08:47:45;;;;;;;3.25;2.75;;;5.00;99.90;;;5.09;100.00;98922.16;5025478;28;20197;-62
2021/12/04 08:50:25;;;;;;;8.75;4.45;;;5.10;99.90;;;5.16;100.00;98918.19;5041573;28;20309;-62
2021/12/04 08:52:54;;;;;;;6.55;4.30;;;5.10;99.90;;;5.22;100.00;98919.47;5023171;28;20300;-64
2021/12/04 08:55:23;;;;;;;7.07;4.45;;;5.20;99.90;;;5.25;100.00;98922.66;5029492;28;20733;-64
2021/12/04 08:57:51;;;;;;;6.93;4.18;;;5.20;99.90;;;5.29;100.00;98918.88;5029132;28;20204;-64
2021/12/04 09:00:34;;;;;;;6.22;3.80;;;5.30;99.90;;;5.35;100.00;98925.34;5030685;28;20312;-63
2021/12/04 09:03:05;;;;;;;7.87;4.47;;;5.30;99.90;;;5.35;100.00;98921.00;5023803;28;20201;-64
2021/12/04 09:05:33;;;;;;;5.40;4.03;;;5.30;99.90;;;5.39;100.00;98916.41;5027733;28;20682;-64
2021/12/04 09:08:00;;;;;;;6.22;3.35;;;5.40;99.90;;;5.44;100.00;98915.13;5023377;28;21283;-66
2021/12/04 09:10:27;;;;;;;6.10;3.95;;;5.40;99.90;;;5.50;100.00;98911.22;5029342;28;20226;-65
2021/12/04 09:12:55;;;;;;;5.63;4.17;;;5.50;99.90;;;5.52;100.00;98906.75;5031171;28;20665;-64
2021/12/04 09:15:27;;;;;;;6.53;4.30;;;5.50;99.90;;;5.59;100.00;98909.69;5031104;28;21033;-64
2021/12/04 09:17:54;;;;;;;5.20;3.87;;;5.60;99.90;;;5.64;100.00;98908.38;5031101;28;20678;-65
2021/12/04 09:20:21;;;;;;;5.67;4.00;;;5.60;99.90;;;5.67;100.00;98902.94;5029748;28;21235;-60
2021/12/04 09:22:49;;;;;;;7.87;4.00;;;5.60;99.90;;;5.68;100.00;98896.84;5032879;28;20734;-63
2021/12/04 09:25:23;;;;;;;4.20;3.10;;;5.60;99.90;;;5.69;100.00;98897.66;5038883;28;20660;-65
2021/12/04 10:00:55;;;;;;;3.67;3.30;;;5.80;99.90;;;5.91;99.91;98874.34;5033836;28;20642;-64
2021/12/04 10:03:42;;;;;;;5.67;3.80;;;5.80;99.90;;;5.90;99.23;98865.75;5034423;28;20627;-65
2021/12/04 10:23:25;;;;;;;7.60;5.00;;;6.00;99.90;;;6.02;99.57;98838.06;5013073;28;20645;-63
2021/12/04 10:34:33;;;;;;;11.80;6.27;;;5.90;99.90;;;5.90;99.04;98813.19;5023185;28;21085;-65
2021/12/04 10:37:11;;;;;;;10.75;5.80;;;5.80;99.90;;;5.87;99.77;98809.06;5030984;28;20731;-63
2021/12/04 10:39:40;;;;;;;10.60;5.67;;;5.80;99.90;;;5.91;99.37;98807.88;5029969;28;20667;-64
2021/12/04 10:42:13;;;;;;;9.50;5.33;;;5.80;99.90;;;5.90;100.00;98798.44;5031272;28;21257;-65
2021/12/04 10:44:48;;;;;;;11.37;5.67;;;5.80;99.90;;;5.92;99.74;98795.75;5031867;28;20710;-63
2021/12/04 10:47:22;;;;;;;6.17;4.43;;;5.80;99.90;;;5.94;99.96;98791.28;5032806;28;20638;-63
2021/12/04 10:53:00;;;;;;;4.17;3.40;;;5.90;99.90;;;5.99;99.66;98777.00;5019977;28;20766;-63
2021/12/04 11:01:48;;;;;;;28.13;12.00;;;6.00;99.90;;;6.03;100.00;98762.84;5028554;28;20728;-65
2021/12/04 11:19:04;;;;;;;13.43;7.20;;;5.90;99.90;;;6.04;99.42;98728.25;5031522;28;20628;-63
2021/12/04 11:24:52;;;;;;;20.67;7.60;;;5.90;99.90;;;6.06;100.00;98715.19;5031150;28;20642;-63
2021/12/04 11:43:20;;;;;;;6.63;4.27;;;6.00;99.90;;;6.16;99.91;98675.44;5029704;28;20727;-63
2021/12/04 11:48:35;;;;;;;3.90;3.27;;;6.00;99.90;;;6.19;100.00;98677.78;5029879;28;20726;-65
2021/12/04 11:51:20;;;;;;;4.23;2.90;;;6.10;99.90;;;6.25;99.71;98663.50;5073451;22;20753;-69
2021/12/04 11:53:48;;;;;;;3.83;3.07;;;6.20;99.90;;;6.29;99.20;98664.84;5065771;28;21116;-69
2021/12/04 11:56:27;;;;;;;6.90;3.37;;;6.20;99.90;;;6.35;99.60;98653.16;5052023;28;20623;-70
2021/12/04 11:58:55;;;;;;;3.90;3.10;;;6.30;99.90;;;6.37;99.21;98653.88;5051869;28;20760;-70
2021/12/04 12:01:32;;;;;;;7.17;4.27;;;6.30;99.90;;;6.42;98.86;98649.91;5046079;28;20659;-70
2021/12/04 12:04:08;;;;;;;4.10;3.27;;;6.40;99.90;;;6.47;99.22;98640.00;5026862;28;21042;-70
2021/12/04 12:06:43;;;;;;;5.37;3.90;;;6.40;99.90;;;6.49;98.05;98643.25;5031072;28;20627;-69
2021/12/04 12:09:19;;;;;;;6.67;3.70;;;6.40;99.90;;;6.50;98.72;98636.28;5030490;28;20666;-69
2021/12/04 12:11:54;;;;;;;6.60;4.50;;;6.40;99.90;;;6.47;98.38;98621.03;5031783;28;20826;-69
2021/12/04 12:14:52;;;;;;;6.07;4.03;;;6.40;99.90;;;6.50;98.98;98623.34;5032131;28;21278;-70
2021/12/04 12:17:37;;;;;;;4.77;3.70;;;6.40;99.90;;;6.52;98.40;98624.84;5030857;28;20635;-70
2021/12/04 12:20:11;;;;;;;4.67;3.60;;;6.40;99.90;;;6.50;99.33;98628.50;5030132;28;20654;-70
2021/12/04 12:22:44;;;;;;;4.80;3.80;;;6.40;99.90;;;6.50;98.64;98618.16;5030989;28;20699;-70
2021/12/04 12:25:28;;;;;;;6.70;4.33;;;6.40;99.90;;;6.52;99.17;98605.88;5014979;28;20637;-70
2021/12/04 12:34:05;;;;;;;6.87;3.80;;;6.50;99.90;;;6.68;98.02;98582.88;5022012;28;20665;-70
2021/12/04 12:36:33;;;;;;;4.70;3.33;;;6.70;99.90;;;6.71;97.88;98578.22;5041980;28;21180;-70
2021/12/04 12:39:11;;;;;;;7.23;4.50;;;6.70;99.90;;;6.73;97.70;98585.88;5049612;28;20614;-69
2021/12/04 12:41:40;;;;;;;8.97;5.27;;;6.60;99.90;;;6.74;97.63;98582.34;5051072;28;20640;-70
2021/12/04 12:44:28;;;;;;;9.90;5.40;;;6.70;99.90;;;6.69;97.53;98574.97;5036588;28;21274;-69
2021/12/04 12:47:06;;;;;;;7.83;4.07;;;6.60;99.90;;;6.66;98.59;98570.06;5022667;28;21230;-69
2021/12/04 12:49:38;;;;;;;14.90;6.93;;;6.50;99.90;;;6.66;98.50;98570.06;5028245;28;21250;-70
2021/12/04 12:52:20;;;;;;;13.73;7.63;;;6.50;99.90;;;6.60;98.73;98562.81;5028021;28;21176;-70
2021/12/04 12:54:53;;;;;;;10.57;6.57;;;6.50;99.90;;;6.59;98.79;98563.78;5022161;28;21420;-70
2021/12/04 12:57:26;;;;;;;12.10;6.60;;;6.50;99.90;;;6.58;98.60;98558.75;5017644;28;21090;-69
2021/12/04 13:12:14;;;;;;;5.87;3.57;;;6.50;99.90;;;6.60;99.83;98551.66;5010734;28;20653;-69
2021/12/04 13:14:40;;;;;;;7.80;3.90;;;6.50;99.90;;;6.58;99.90;98543.19;5026109;28;20694;-67
2021/12/04 13:17:23;;;;;;;7.17;4.20;;;6.50;99.90;;;6.59;100.00;98544.81;5030332;28;20637;-69
2021/12/04 13:19:55;;;;;;;10.57;5.37;;;6.50;99.90;;;6.59;100.00;98537.03;5031288;28;20640;-69
2021/12/04 13:22:28;;;;;;;7.33;4.50;;;6.40;99.90;;;6.58;100.00;98540.59;5029441;28;20719;-71
2021/12/04 13:24:59;;;;;;;4.07;3.30;;;6.50;99.90;;;6.60;100.00;98538.69;5027491;28;20721;-70
2021/12/04 13:30:09;;;;;;;7.43;3.93;;;6.50;99.90;;;6.58;100.00;98536.22;5027849;28;21258;-69
2021/12/04 13:32:43;;;;;;;3.30;3.00;;;6.40;99.90;;;6.58;100.00;98546.59;5049076;28;20862;-68
2021/12/04 13:35:18;;;;;;;6.03;3.87;;;6.40;99.90;;;6.58;100.00;98543.19;5029728;28;20755;-70
2021/12/04 13:37:47;;;;;;;4.33;3.30;;;6.40;99.90;;;6.59;100.00;98543.06;5029373;28;20632;-69
2021/12/04 13:40:19;;;;;;;8.87;5.40;;;6.40;99.90;;;6.61;100.00;98550.69;5029445;28;20652;-70
2021/12/04 13:42:48;;;;;;;7.87;4.30;;;6.50;99.90;;;6.60;100.00;98557.63;5030472;28;20635;-70
2021/12/04 13:45:19;;;;;;;10.67;3.87;;;6.50;99.90;;;6.58;100.00;98567.31;5029055;28;20596;-69
2021/12/04 13:47:56;;;;;;;7.20;4.17;;;6.40;99.90;;;6.57;100.00;98563.09;5029902;28;20771;-71
2021/12/04 13:53:26;;;;;;;5.57;3.67;;;6.40;99.90;;;6.51;100.00;98576.59;5050512;28;20695;-70
2021/12/04 13:56:07;;;;;;;7.40;3.87;;;6.40;99.90;;;6.51;100.00;98563.63;5019583;28;20727;-70
2021/12/04 13:58:47;;;;;;;6.93;3.83;;;6.40;99.90;;;6.45;100.00;98565.94;5028223;28;21092;-70
2021/12/04 14:01:15;;;;;;;3.80;3.17;;;6.30;99.90;;;6.44;100.00;98565.13;5030699;28;20858;-71
2021/12/04 14:03:44;;;;;;;3.60;2.90;;;6.30;99.90;;;6.24;100.00;98559.09;5018961;28;20687;-71
2021/12/04 14:06:18;;;;;;;3.17;2.40;;;6.10;99.90;;;6.22;100.00;98560.16;5031256;28;20716;-71